sensor_id;sensor_type;location;lat;lon;timestamp;P1;durP1;ratioP1;P2;durP2;ratioP2
42066;SDS011;27734;47.028;28.820;2022-09-09T00:00:26;26.63;;;12.87;;
42066;SDS011;27734;47.028;28.820;2022-09-09T00:03:24;26.13;;;12.10;;
42066;SDS011;27734;47.028;28.820;2022-09-09T00:06:01;24.33;;;12.60;;
42066;SDS011;27734;47.028;28.820;2022-09-09T00:08:41;24.47;;;12.87;;
42066;SDS011;27734;47.028;28.820;2022-09-09T00:11:24;25.87;;;12.70;;
42066;SDS011;27734;47.028;28.820;2022-09-09T00:13:58;23.07;;;12.40;;
42066;SDS011;27734;47.028;28.820;2022-09-09T00:16:39;23.67;;;12.63;;
42066;SDS011;27734;47.028;28.820;2022-09-09T00:19:20;24.87;;;12.77;;
42066;SDS011;27734;47.028;28.820;2022-09-09T00:22:00;23.90;;;12.73;;
42066;SDS011;27734;47.028;28.820;2022-09-09T00:24:44;24.50;;;12.50;;
42066;SDS011;27734;47.028;28.820;2022-09-09T00:27:19;22.93;;;12.10;;
42066;SDS011;27734;47.028;28.820;2022-09-09T00:29:57;25.80;;;12.80;;
42066;SDS011;27734;47.028;28.820;2022-09-09T00:32:41;23.70;;;12.20;;
42066;SDS011;27734;47.028;28.820;2022-09-09T00:35:16;22.63;;;11.43;;
42066;SDS011;27734;47.028;28.820;2022-09-09T00:37:53;25.63;;;12.53;;
42066;SDS011;27734;47.028;28.820;2022-09-09T00:40:30;25.60;;;13.10;;
42066;SDS011;27734;47.028;28.820;2022-09-09T00:43:09;22.13;;;11.53;;
42066;SDS011;27734;47.028;28.820;2022-09-09T00:45:56;23.97;;;11.83;;
42066;SDS011;27734;47.028;28.820;2022-09-09T00:48:41;25.30;;;12.37;;
42066;SDS011;27734;47.028;28.820;2022-09-09T00:51:22;22.60;;;12.50;;
42066;SDS011;27734;47.028;28.820;2022-09-09T00:54:15;24.53;;;12.13;;
42066;SDS011;27734;47.028;28.820;2022-09-09T00:57:00;24.67;;;12.83;;
42066;SDS011;27734;47.028;28.820;2022-09-09T00:59:42;23.33;;;11.90;;
42066;SDS011;27734;47.028;28.820;2022-09-09T01:02:30;25.57;;;11.77;;
42066;SDS011;27734;47.028;28.820;2022-09-09T01:05:10;23.30;;;12.83;;
42066;SDS011;27734;47.028;28.820;2022-09-09T01:07:50;24.73;;;11.93;;
42066;SDS011;27734;47.028;28.820;2022-09-09T01:10:23;24.90;;;12.70;;
42066;SDS011;27734;47.028;28.820;2022-09-09T01:13:00;22.50;;;12.57;;
42066;SDS011;27734;47.028;28.820;2022-09-09T01:15:42;27.40;;;13.10;;
42066;SDS011;27734;47.028;28.820;2022-09-09T01:18:16;26.07;;;12.80;;
42066;SDS011;27734;47.028;28.820;2022-09-09T01:20:52;25.25;;;12.55;;
42066;SDS011;27734;47.028;28.820;2022-09-09T01:23:33;24.10;;;12.37;;
42066;SDS011;27734;47.028;28.820;2022-09-09T01:26:40;22.23;;;11.63;;
42066;SDS011;27734;47.028;28.820;2022-09-09T01:29:24;26.47;;;12.47;;
42066;SDS011;27734;47.028;28.820;2022-09-09T01:31:56;23.30;;;11.77;;
42066;SDS011;27734;47.028;28.820;2022-09-09T01:34:30;23.30;;;12.53;;
42066;SDS011;27734;47.028;28.820;2022-09-09T01:37:06;26.17;;;11.73;;
42066;SDS011;27734;47.028;28.820;2022-09-09T01:39:40;25.07;;;11.87;;
42066;SDS011;27734;47.028;28.820;2022-09-09T01:42:16;25.27;;;12.23;;
42066;SDS011;27734;47.028;28.820;2022-09-09T01:44:48;23.40;;;12.33;;
42066;SDS011;27734;47.028;28.820;2022-09-09T01:47:19;24.13;;;12.60;;
42066;SDS011;27734;47.028;28.820;2022-09-09T01:50:10;24.33;;;12.53;;
42066;SDS011;27734;47.028;28.820;2022-09-09T01:52:44;24.83;;;12.50;;
42066;SDS011;27734;47.028;28.820;2022-09-09T01:55:23;25.30;;;12.27;;
42066;SDS011;27734;47.028;28.820;2022-09-09T01:58:06;26.80;;;12.93;;
42066;SDS011;27734;47.028;28.820;2022-09-09T02:00:54;22.25;;;11.55;;
42066;SDS011;27734;47.028;28.820;2022-09-09T02:03:32;26.37;;;12.60;;
42066;SDS011;27734;47.028;28.820;2022-09-09T02:06:18;25.65;;;13.05;;
42066;SDS011;27734;47.028;28.820;2022-09-09T02:08:57;28.77;;;13.07;;
42066;SDS011;27734;47.028;28.820;2022-09-09T02:11:33;27.27;;;13.20;;
42066;SDS011;27734;47.028;28.820;2022-09-09T02:14:10;27.80;;;13.37;;
42066;SDS011;27734;47.028;28.820;2022-09-09T02:16:48;27.37;;;14.07;;
42066;SDS011;27734;47.028;28.820;2022-09-09T02:19:27;27.47;;;14.90;;
42066;SDS011;27734;47.028;28.820;2022-09-09T02:22:08;26.10;;;14.73;;
42066;SDS011;27734;47.028;28.820;2022-09-09T02:24:40;27.27;;;14.43;;
42066;SDS011;27734;47.028;28.820;2022-09-09T02:27:23;27.20;;;15.70;;
42066;SDS011;27734;47.028;28.820;2022-09-09T02:29:54;26.87;;;14.77;;
42066;SDS011;27734;47.028;28.820;2022-09-09T02:32:39;32.13;;;15.43;;
42066;SDS011;27734;47.028;28.820;2022-09-09T02:35:19;28.93;;;14.50;;
42066;SDS011;27734;47.028;28.820;2022-09-09T02:37:55;26.97;;;13.83;;
42066;SDS011;27734;47.028;28.820;2022-09-09T02:40:29;32.70;;;14.57;;
42066;SDS011;27734;47.028;28.820;2022-09-09T02:45:34;29.07;;;13.63;;
42066;SDS011;27734;47.028;28.820;2022-09-09T02:48:14;28.93;;;14.33;;
42066;SDS011;27734;47.028;28.820;2022-09-09T02:50:56;25.50;;;14.05;;
42066;SDS011;27734;47.028;28.820;2022-09-09T02:53:39;27.15;;;13.90;;
42066;SDS011;27734;47.028;28.820;2022-09-09T02:56:17;25.23;;;13.40;;
42066;SDS011;27734;47.028;28.820;2022-09-09T02:58:51;30.10;;;14.10;;
42066;SDS011;27734;47.028;28.820;2022-09-09T03:01:24;26.62;;;14.15;;
42066;SDS011;27734;47.028;28.820;2022-09-09T03:03:56;29.87;;;13.73;;
42066;SDS011;27734;47.028;28.820;2022-09-09T03:06:27;25.70;;;13.23;;
42066;SDS011;27734;47.028;28.820;2022-09-09T03:09:06;31.70;;;13.47;;
42066;SDS011;27734;47.028;28.820;2022-09-09T03:11:39;28.53;;;13.33;;
42066;SDS011;27734;47.028;28.820;2022-09-09T03:14:10;27.10;;;12.83;;
42066;SDS011;27734;47.028;28.820;2022-09-09T03:16:42;27.00;;;13.83;;
42066;SDS011;27734;47.028;28.820;2022-09-09T03:19:14;25.93;;;13.70;;
42066;SDS011;27734;47.028;28.820;2022-09-09T03:21:46;27.63;;;13.60;;
42066;SDS011;27734;47.028;28.820;2022-09-09T03:24:17;26.73;;;14.53;;
42066;SDS011;27734;47.028;28.820;2022-09-09T03:26:53;29.13;;;14.07;;
42066;SDS011;27734;47.028;28.820;2022-09-09T03:29:28;30.47;;;13.90;;
42066;SDS011;27734;47.028;28.820;2022-09-09T03:32:02;27.52;;;14.20;;
42066;SDS011;27734;47.028;28.820;2022-09-09T03:34:36;24.90;;;12.87;;
42066;SDS011;27734;47.028;28.820;2022-09-09T03:37:08;25.47;;;12.37;;
42066;SDS011;27734;47.028;28.820;2022-09-09T03:39:41;26.20;;;13.07;;
42066;SDS011;27734;47.028;28.820;2022-09-09T03:42:13;27.03;;;12.23;;
42066;SDS011;27734;47.028;28.820;2022-09-09T03:44:47;25.72;;;12.63;;
42066;SDS011;27734;47.028;28.820;2022-09-09T03:47:20;25.40;;;12.73;;
42066;SDS011;27734;47.028;28.820;2022-09-09T03:49:56;24.83;;;12.43;;
42066;SDS011;27734;47.028;28.820;2022-09-09T03:52:28;25.87;;;12.20;;
42066;SDS011;27734;47.028;28.820;2022-09-09T03:55:00;30.53;;;11.73;;
42066;SDS011;27734;47.028;28.820;2022-09-09T03:57:32;28.67;;;12.47;;
42066;SDS011;27734;47.028;28.820;2022-09-09T04:00:05;28.33;;;13.00;;
42066;SDS011;27734;47.028;28.820;2022-09-09T04:02:50;25.23;;;12.40;;
42066;SDS011;27734;47.028;28.820;2022-09-09T04:05:23;32.27;;;14.13;;
42066;SDS011;27734;47.028;28.820;2022-09-09T04:07:55;31.83;;;14.67;;
42066;SDS011;27734;47.028;28.820;2022-09-09T04:10:26;29.17;;;13.57;;
42066;SDS011;27734;47.028;28.820;2022-09-09T04:12:58;33.17;;;13.63;;
42066;SDS011;27734;47.028;28.820;2022-09-09T04:15:29;31.97;;;14.20;;
42066;SDS011;27734;47.028;28.820;2022-09-09T04:18:02;26.90;;;14.00;;
42066;SDS011;27734;47.028;28.820;2022-09-09T04:20:34;31.10;;;14.53;;
42066;SDS011;27734;47.028;28.820;2022-09-09T04:23:06;31.07;;;14.40;;
42066;SDS011;27734;47.028;28.820;2022-09-09T04:25:37;34.17;;;14.83;;
42066;SDS011;27734;47.028;28.820;2022-09-09T04:28:11;46.77;;;15.77;;
42066;SDS011;27734;47.028;28.820;2022-09-09T04:30:43;33.43;;;14.43;;
42066;SDS011;27734;47.028;28.820;2022-09-09T04:33:14;32.27;;;14.83;;
42066;SDS011;27734;47.028;28.820;2022-09-09T04:35:47;43.43;;;14.90;;
42066;SDS011;27734;47.028;28.820;2022-09-09T04:38:22;37.00;;;14.83;;
42066;SDS011;27734;47.028;28.820;2022-09-09T04:40:56;33.87;;;15.27;;
42066;SDS011;27734;47.028;28.820;2022-09-09T04:43:28;33.93;;;15.57;;
42066;SDS011;27734;47.028;28.820;2022-09-09T04:46:01;34.78;;;16.20;;
42066;SDS011;27734;47.028;28.820;2022-09-09T04:48:36;29.23;;;15.07;;
42066;SDS011;27734;47.028;28.820;2022-09-09T04:51:11;33.02;;;14.47;;
42066;SDS011;27734;47.028;28.820;2022-09-09T04:53:45;28.17;;;14.80;;
42066;SDS011;27734;47.028;28.820;2022-09-09T04:56:19;28.87;;;14.23;;
42066;SDS011;27734;47.028;28.820;2022-09-09T04:58:57;28.60;;;13.23;;
42066;SDS011;27734;47.028;28.820;2022-09-09T05:01:39;32.27;;;14.13;;
42066;SDS011;27734;47.028;28.820;2022-09-09T05:06:45;27.23;;;13.87;;
42066;SDS011;27734;47.028;28.820;2022-09-09T05:09:20;27.87;;;14.30;;
42066;SDS011;27734;47.028;28.820;2022-09-09T05:11:54;25.67;;;14.30;;
42066;SDS011;27734;47.028;28.820;2022-09-09T05:14:31;28.13;;;15.07;;
42066;SDS011;27734;47.028;28.820;2022-09-09T05:17:04;28.90;;;15.35;;
42066;SDS011;27734;47.028;28.820;2022-09-09T05:19:38;28.27;;;14.03;;
42066;SDS011;27734;47.028;28.820;2022-09-09T05:22:11;27.33;;;14.43;;
42066;SDS011;27734;47.028;28.820;2022-09-09T05:24:50;28.97;;;14.43;;
42066;SDS011;27734;47.028;28.820;2022-09-09T05:27:24;26.73;;;14.03;;
42066;SDS011;27734;47.028;28.820;2022-09-09T05:30:01;24.40;;;13.73;;
42066;SDS011;27734;47.028;28.820;2022-09-09T05:32:33;27.73;;;13.77;;
42066;SDS011;27734;47.028;28.820;2022-09-09T05:35:05;27.87;;;13.20;;
42066;SDS011;27734;47.028;28.820;2022-09-09T05:37:41;26.55;;;13.20;;
42066;SDS011;27734;47.028;28.820;2022-09-09T05:40:16;43.50;;;15.77;;
42066;SDS011;27734;47.028;28.820;2022-09-09T05:42:52;33.25;;;18.00;;
42066;SDS011;27734;47.028;28.820;2022-09-09T05:45:24;35.77;;;19.77;;
42066;SDS011;27734;47.028;28.820;2022-09-09T05:47:56;32.97;;;21.87;;
42066;SDS011;27734;47.028;28.820;2022-09-09T05:50:31;30.90;;;20.27;;
42066;SDS011;27734;47.028;28.820;2022-09-09T05:53:13;30.20;;;16.63;;
42066;SDS011;27734;47.028;28.820;2022-09-09T05:55:45;29.43;;;16.77;;
42066;SDS011;27734;47.028;28.820;2022-09-09T05:58:24;28.77;;;15.20;;
42066;SDS011;27734;47.028;28.820;2022-09-09T06:01:01;35.13;;;16.07;;
42066;SDS011;27734;47.028;28.820;2022-09-09T06:03:35;26.47;;;14.17;;
42066;SDS011;27734;47.028;28.820;2022-09-09T06:06:15;25.23;;;15.03;;
42066;SDS011;27734;47.028;28.820;2022-09-09T06:08:51;26.70;;;14.77;;
42066;SDS011;27734;47.028;28.820;2022-09-09T06:11:27;25.60;;;13.93;;
42066;SDS011;27734;47.028;28.820;2022-09-09T06:14:13;24.23;;;12.93;;
42066;SDS011;27734;47.028;28.820;2022-09-09T06:16:50;26.63;;;13.60;;
42066;SDS011;27734;47.028;28.820;2022-09-09T06:19:26;25.50;;;13.13;;
42066;SDS011;27734;47.028;28.820;2022-09-09T06:22:02;26.90;;;12.70;;
42066;SDS011;27734;47.028;28.820;2022-09-09T06:24:45;25.10;;;12.50;;
42066;SDS011;27734;47.028;28.820;2022-09-09T06:27:23;21.57;;;12.10;;
42066;SDS011;27734;47.028;28.820;2022-09-09T06:30:05;26.70;;;11.53;;
42066;SDS011;27734;47.028;28.820;2022-09-09T06:33:16;22.10;;;11.20;;
42066;SDS011;27734;47.028;28.820;2022-09-09T06:35:55;21.67;;;11.00;;
42066;SDS011;27734;47.028;28.820;2022-09-09T06:38:39;25.77;;;11.43;;
42066;SDS011;27734;47.028;28.820;2022-09-09T06:41:12;25.60;;;11.73;;
42066;SDS011;27734;47.028;28.820;2022-09-09T06:43:54;27.03;;;11.93;;
42066;SDS011;27734;47.028;28.820;2022-09-09T06:46:42;21.07;;;10.67;;
42066;SDS011;27734;47.028;28.820;2022-09-09T06:55:12;21.63;;;10.57;;
42066;SDS011;27734;47.028;28.820;2022-09-09T06:57:49;23.87;;;10.20;;
42066;SDS011;27734;47.028;28.820;2022-09-09T07:00:43;20.67;;;9.33;;
42066;SDS011;27734;47.028;28.820;2022-09-09T07:06:19;18.60;;;9.00;;
42066;SDS011;27734;47.028;28.820;2022-09-09T07:09:09;20.00;;;9.33;;
42066;SDS011;27734;47.028;28.820;2022-09-09T07:12:04;18.80;;;9.03;;
42066;SDS011;27734;47.028;28.820;2022-09-09T07:19:21;19.27;;;8.93;;
42066;SDS011;27734;47.028;28.820;2022-09-09T07:22:18;18.67;;;8.20;;
42066;SDS011;27734;47.028;28.820;2022-09-09T07:24:56;18.97;;;8.60;;
42066;SDS011;27734;47.028;28.820;2022-09-09T07:27:57;19.20;;;8.73;;
42066;SDS011;27734;47.028;28.820;2022-09-09T07:30:40;21.27;;;8.60;;
42066;SDS011;27734;47.028;28.820;2022-09-09T07:33:38;19.13;;;8.20;;
42066;SDS011;27734;47.028;28.820;2022-09-09T07:36:32;15.65;;;7.85;;
42066;SDS011;27734;47.028;28.820;2022-09-09T07:39:26;22.17;;;8.53;;
42066;SDS011;27734;47.028;28.820;2022-09-09T07:42:01;18.67;;;8.00;;
42066;SDS011;27734;47.028;28.820;2022-09-09T07:44:35;17.73;;;8.50;;
42066;SDS011;27734;47.028;28.820;2022-09-09T07:47:22;18.53;;;7.87;;
42066;SDS011;27734;47.028;28.820;2022-09-09T07:50:09;18.07;;;6.95;;
42066;SDS011;27734;47.028;28.820;2022-09-09T07:56:02;14.77;;;6.50;;
42066;SDS011;27734;47.028;28.820;2022-09-09T08:06:04;14.97;;;6.00;;
42066;SDS011;27734;47.028;28.820;2022-09-09T08:16:02;14.97;;;6.17;;
42066;SDS011;27734;47.028;28.820;2022-09-09T08:19:01;16.50;;;5.87;;
42066;SDS011;27734;47.028;28.820;2022-09-09T08:25:19;11.27;;;6.03;;
42066;SDS011;27734;47.028;28.820;2022-09-09T08:28:16;13.87;;;6.20;;
42066;SDS011;27734;47.028;28.820;2022-09-09T08:31:08;14.80;;;6.00;;
42066;SDS011;27734;47.028;28.820;2022-09-09T08:34:29;17.80;;;5.93;;
42066;SDS011;27734;47.028;28.820;2022-09-09T08:37:54;13.13;;;4.93;;
42066;SDS011;27734;47.028;28.820;2022-09-09T08:44:41;10.90;;;5.33;;
42066;SDS011;27734;47.028;28.820;2022-09-09T08:47:51;14.00;;;5.10;;
42066;SDS011;27734;47.028;28.820;2022-09-09T08:50:44;11.87;;;4.60;;
42066;SDS011;27734;47.028;28.820;2022-09-09T08:53:36;15.90;;;4.90;;
42066;SDS011;27734;47.028;28.820;2022-09-09T08:56:30;12.13;;;4.70;;
42066;SDS011;27734;47.028;28.820;2022-09-09T08:59:05;9.70;;;5.17;;
42066;SDS011;27734;47.028;28.820;2022-09-09T09:01:45;8.60;;;4.40;;
42066;SDS011;27734;47.028;28.820;2022-09-09T09:05:19;7.60;;;4.20;;
42066;SDS011;27734;47.028;28.820;2022-09-09T09:08:24;10.82;;;4.50;;
42066;SDS011;27734;47.028;28.820;2022-09-09T09:11:31;11.70;;;4.93;;
42066;SDS011;27734;47.028;28.820;2022-09-09T09:14:20;7.03;;;3.97;;
42066;SDS011;27734;47.028;28.820;2022-09-09T09:17:05;8.80;;;4.40;;
42066;SDS011;27734;47.028;28.820;2022-09-09T09:19:49;10.20;;;4.30;;
42066;SDS011;27734;47.028;28.820;2022-09-09T09:22:36;8.60;;;4.07;;
42066;SDS011;27734;47.028;28.820;2022-09-09T09:25:14;9.10;;;4.07;;
42066;SDS011;27734;47.028;28.820;2022-09-09T09:28:10;10.30;;;4.50;;
42066;SDS011;27734;47.028;28.820;2022-09-09T09:31:19;13.50;;;4.53;;
42066;SDS011;27734;47.028;28.820;2022-09-09T09:34:14;8.97;;;4.33;;
42066;SDS011;27734;47.028;28.820;2022-09-09T09:37:02;6.63;;;4.37;;
42066;SDS011;27734;47.028;28.820;2022-09-09T09:39:48;6.73;;;3.93;;
42066;SDS011;27734;47.028;28.820;2022-09-09T09:42:29;10.17;;;4.60;;
42066;SDS011;27734;47.028;28.820;2022-09-09T09:48:09;9.33;;;4.43;;
42066;SDS011;27734;47.028;28.820;2022-09-09T09:50:48;7.97;;;4.03;;
42066;SDS011;27734;47.028;28.820;2022-09-09T09:53:39;11.13;;;4.23;;
42066;SDS011;27734;47.028;28.820;2022-09-09T09:56:27;7.73;;;3.93;;
42066;SDS011;27734;47.028;28.820;2022-09-09T09:59:02;11.63;;;4.13;;
42066;SDS011;27734;47.028;28.820;2022-09-09T10:01:54;6.13;;;4.03;;
42066;SDS011;27734;47.028;28.820;2022-09-09T10:04:46;11.88;;;3.95;;
42066;SDS011;27734;47.028;28.820;2022-09-09T10:07:32;10.73;;;4.20;;
42066;SDS011;27734;47.028;28.820;2022-09-09T10:10:19;9.33;;;3.92;;
42066;SDS011;27734;47.028;28.820;2022-09-09T10:16:54;8.60;;;4.00;;
42066;SDS011;27734;47.028;28.820;2022-09-09T10:22:56;8.23;;;4.25;;
42066;SDS011;27734;47.028;28.820;2022-09-09T10:26:02;9.83;;;4.37;;
42066;SDS011;27734;47.028;28.820;2022-09-09T10:29:07;14.67;;;4.97;;
42066;SDS011;27734;47.028;28.820;2022-09-09T10:32:05;7.55;;;4.00;;
42066;SDS011;27734;47.028;28.820;2022-09-09T10:35:03;10.40;;;4.15;;
42066;SDS011;27734;47.028;28.820;2022-09-09T10:38:14;10.40;;;4.33;;
42066;SDS011;27734;47.028;28.820;2022-09-09T10:43:59;8.27;;;4.03;;
42066;SDS011;27734;47.028;28.820;2022-09-09T10:46:55;9.07;;;4.10;;
42066;SDS011;27734;47.028;28.820;2022-09-09T10:49:47;11.13;;;4.30;;
42066;SDS011;27734;47.028;28.820;2022-09-09T10:52:29;9.13;;;4.23;;
42066;SDS011;27734;47.028;28.820;2022-09-09T10:55:26;7.47;;;4.23;;
42066;SDS011;27734;47.028;28.820;2022-09-09T10:58:17;9.57;;;4.07;;
42066;SDS011;27734;47.028;28.820;2022-09-09T11:00:59;10.63;;;4.93;;
42066;SDS011;27734;47.028;28.820;2022-09-09T11:04:05;7.47;;;4.33;;
42066;SDS011;27734;47.028;28.820;2022-09-09T11:06:49;10.93;;;4.50;;
42066;SDS011;27734;47.028;28.820;2022-09-09T11:09:47;9.10;;;4.40;;
42066;SDS011;27734;47.028;28.820;2022-09-09T11:12:55;9.30;;;4.07;;
42066;SDS011;27734;47.028;28.820;2022-09-09T11:15:52;7.90;;;4.40;;
42066;SDS011;27734;47.028;28.820;2022-09-09T11:18:35;7.40;;;4.42;;
42066;SDS011;27734;47.028;28.820;2022-09-09T11:21:12;10.87;;;4.60;;
42066;SDS011;27734;47.028;28.820;2022-09-09T11:24:06;8.60;;;4.30;;
42066;SDS011;27734;47.028;28.820;2022-09-09T11:26:59;8.50;;;4.30;;
42066;SDS011;27734;47.028;28.820;2022-09-09T11:29:52;8.03;;;4.70;;
42066;SDS011;27734;47.028;28.820;2022-09-09T11:33:22;15.63;;;5.33;;
42066;SDS011;27734;47.028;28.820;2022-09-09T11:39:35;12.50;;;4.57;;
42066;SDS011;27734;47.028;28.820;2022-09-09T11:42:21;10.18;;;4.58;;
42066;SDS011;27734;47.028;28.820;2022-09-09T11:45:07;7.27;;;4.50;;
42066;SDS011;27734;47.028;28.820;2022-09-09T11:47:55;8.47;;;4.50;;
42066;SDS011;27734;47.028;28.820;2022-09-09T11:50:42;7.87;;;4.27;;
42066;SDS011;27734;47.028;28.820;2022-09-09T11:53:22;8.87;;;4.47;;
42066;SDS011;27734;47.028;28.820;2022-09-09T11:56:07;10.97;;;4.57;;
42066;SDS011;27734;47.028;28.820;2022-09-09T11:58:59;10.53;;;4.20;;
42066;SDS011;27734;47.028;28.820;2022-09-09T12:01:48;10.33;;;4.33;;
42066;SDS011;27734;47.028;28.820;2022-09-09T12:04:32;6.93;;;3.90;;
42066;SDS011;27734;47.028;28.820;2022-09-09T12:07:29;11.27;;;4.53;;
42066;SDS011;27734;47.028;28.820;2022-09-09T12:10:23;9.70;;;4.57;;
42066;SDS011;27734;47.028;28.820;2022-09-09T12:13:13;10.53;;;4.53;;
42066;SDS011;27734;47.028;28.820;2022-09-09T12:15:55;10.67;;;5.40;;
42066;SDS011;27734;47.028;28.820;2022-09-09T12:18:47;11.93;;;4.90;;
42066;SDS011;27734;47.028;28.820;2022-09-09T12:21:59;12.60;;;4.40;;
42066;SDS011;27734;47.028;28.820;2022-09-09T12:24:46;10.90;;;4.27;;
42066;SDS011;27734;47.028;28.820;2022-09-09T12:27:44;10.17;;;4.33;;
42066;SDS011;27734;47.028;28.820;2022-09-09T12:30:35;10.53;;;4.50;;
42066;SDS011;27734;47.028;28.820;2022-09-09T12:33:33;9.40;;;4.60;;
42066;SDS011;27734;47.028;28.820;2022-09-09T12:36:15;9.17;;;4.40;;
42066;SDS011;27734;47.028;28.820;2022-09-09T12:38:54;8.57;;;4.10;;
42066;SDS011;27734;47.028;28.820;2022-09-09T12:41:57;7.33;;;4.40;;
42066;SDS011;27734;47.028;28.820;2022-09-09T12:44:32;10.20;;;3.73;;
42066;SDS011;27734;47.028;28.820;2022-09-09T12:47:17;7.67;;;4.57;;
42066;SDS011;27734;47.028;28.820;2022-09-09T12:49:59;14.27;;;4.57;;
42066;SDS011;27734;47.028;28.820;2022-09-09T12:52:35;11.77;;;4.40;;
42066;SDS011;27734;47.028;28.820;2022-09-09T12:55:16;11.93;;;4.97;;
42066;SDS011;27734;47.028;28.820;2022-09-09T12:57:53;9.77;;;4.90;;
42066;SDS011;27734;47.028;28.820;2022-09-09T13:00:38;12.20;;;5.00;;
42066;SDS011;27734;47.028;28.820;2022-09-09T13:03:30;12.35;;;5.05;;
42066;SDS011;27734;47.028;28.820;2022-09-09T13:06:12;17.47;;;4.70;;
42066;SDS011;27734;47.028;28.820;2022-09-09T13:08:59;14.10;;;5.00;;
42066;SDS011;27734;47.028;28.820;2022-09-09T13:11:40;17.97;;;4.80;;
42066;SDS011;27734;47.028;28.820;2022-09-09T13:14:18;11.20;;;4.60;;
42066;SDS011;27734;47.028;28.820;2022-09-09T13:17:06;11.50;;;4.53;;
42066;SDS011;27734;47.028;28.820;2022-09-09T13:20:18;9.23;;;4.20;;
42066;SDS011;27734;47.028;28.820;2022-09-09T13:25:51;12.20;;;4.50;;
42066;SDS011;27734;47.028;28.820;2022-09-09T13:28:33;9.60;;;4.20;;
42066;SDS011;27734;47.028;28.820;2022-09-09T13:31:22;8.33;;;4.20;;
42066;SDS011;27734;47.028;28.820;2022-09-09T13:34:12;12.23;;;4.50;;
42066;SDS011;27734;47.028;28.820;2022-09-09T13:37:05;14.65;;;4.42;;
42066;SDS011;27734;47.028;28.820;2022-09-09T13:39:52;9.07;;;4.30;;
42066;SDS011;27734;47.028;28.820;2022-09-09T13:42:31;9.57;;;4.70;;
42066;SDS011;27734;47.028;28.820;2022-09-09T13:48:22;9.67;;;4.43;;
42066;SDS011;27734;47.028;28.820;2022-09-09T13:51:03;13.17;;;4.97;;
42066;SDS011;27734;47.028;28.820;2022-09-09T13:53:40;11.03;;;4.33;;
42066;SDS011;27734;47.028;28.820;2022-09-09T13:59:27;16.63;;;5.10;;
42066;SDS011;27734;47.028;28.820;2022-09-09T14:02:15;9.97;;;4.50;;
42066;SDS011;27734;47.028;28.820;2022-09-09T14:04:54;13.30;;;4.80;;
42066;SDS011;27734;47.028;28.820;2022-09-09T14:07:30;8.90;;;4.57;;
42066;SDS011;27734;47.028;28.820;2022-09-09T14:10:08;12.23;;;5.27;;
42066;SDS011;27734;47.028;28.820;2022-09-09T14:12:45;14.23;;;5.60;;
42066;SDS011;27734;47.028;28.820;2022-09-09T14:15:17;22.13;;;6.20;;
42066;SDS011;27734;47.028;28.820;2022-09-09T14:17:56;22.00;;;5.77;;
42066;SDS011;27734;47.028;28.820;2022-09-09T14:20:32;14.43;;;5.50;;
42066;SDS011;27734;47.028;28.820;2022-09-09T14:23:14;16.70;;;6.00;;
42066;SDS011;27734;47.028;28.820;2022-09-09T14:25:50;16.40;;;6.13;;
42066;SDS011;27734;47.028;28.820;2022-09-09T14:28:25;14.40;;;6.50;;
42066;SDS011;27734;47.028;28.820;2022-09-09T14:31:22;33.23;;;7.27;;
42066;SDS011;27734;47.028;28.820;2022-09-09T14:33:57;21.33;;;6.80;;
42066;SDS011;27734;47.028;28.820;2022-09-09T14:39:18;23.83;;;8.97;;
42066;SDS011;27734;47.028;28.820;2022-09-09T14:41:51;24.95;;;7.35;;
42066;SDS011;27734;47.028;28.820;2022-09-09T14:44:23;21.13;;;7.63;;
42066;SDS011;27734;47.028;28.820;2022-09-09T14:47:01;19.87;;;7.90;;
42066;SDS011;27734;47.028;28.820;2022-09-09T14:49:34;21.10;;;7.10;;
42066;SDS011;27734;47.028;28.820;2022-09-09T14:52:06;18.97;;;6.97;;
42066;SDS011;27734;47.028;28.820;2022-09-09T14:54:39;18.87;;;7.07;;
42066;SDS011;27734;47.028;28.820;2022-09-09T14:57:10;16.37;;;6.40;;
42066;SDS011;27734;47.028;28.820;2022-09-09T14:59:42;19.80;;;6.50;;
42066;SDS011;27734;47.028;28.820;2022-09-09T15:02:15;11.50;;;4.92;;
42066;SDS011;27734;47.028;28.820;2022-09-09T15:04:47;11.63;;;4.87;;
42066;SDS011;27734;47.028;28.820;2022-09-09T15:07:21;15.83;;;5.60;;
42066;SDS011;27734;47.028;28.820;2022-09-09T15:09:53;12.57;;;5.47;;
42066;SDS011;27734;47.028;28.820;2022-09-09T15:12:26;14.35;;;5.72;;
42066;SDS011;27734;47.028;28.820;2022-09-09T15:14:59;14.90;;;5.87;;
42066;SDS011;27734;47.028;28.820;2022-09-09T15:17:34;16.97;;;6.23;;
42066;SDS011;27734;47.028;28.820;2022-09-09T15:20:11;11.38;;;5.30;;
42066;SDS011;27734;47.028;28.820;2022-09-09T15:22:48;11.83;;;5.23;;
42066;SDS011;27734;47.028;28.820;2022-09-09T15:25:20;13.87;;;5.30;;
42066;SDS011;27734;47.028;28.820;2022-09-09T15:27:55;12.97;;;5.30;;
42066;SDS011;27734;47.028;28.820;2022-09-09T15:30:27;9.17;;;4.70;;
42066;SDS011;27734;47.028;28.820;2022-09-09T15:32:58;12.53;;;5.53;;
42066;SDS011;27734;47.028;28.820;2022-09-09T15:35:31;11.83;;;4.83;;
42066;SDS011;27734;47.028;28.820;2022-09-09T15:38:03;10.03;;;4.90;;
42066;SDS011;27734;47.028;28.820;2022-09-09T15:40:47;14.03;;;4.87;;
42066;SDS011;27734;47.028;28.820;2022-09-09T15:43:29;10.00;;;4.73;;
42066;SDS011;27734;47.028;28.820;2022-09-09T15:46:19;8.63;;;4.70;;
42066;SDS011;27734;47.028;28.820;2022-09-09T15:48:57;11.60;;;5.23;;
42066;SDS011;27734;47.028;28.820;2022-09-09T15:51:34;11.43;;;5.87;;
42066;SDS011;27734;47.028;28.820;2022-09-09T15:54:13;11.13;;;5.27;;
42066;SDS011;27734;47.028;28.820;2022-09-09T15:56:47;10.67;;;5.67;;
42066;SDS011;27734;47.028;28.820;2022-09-09T15:59:24;10.23;;;5.60;;
42066;SDS011;27734;47.028;28.820;2022-09-09T16:01:57;14.53;;;6.00;;
42066;SDS011;27734;47.028;28.820;2022-09-09T16:04:31;12.87;;;5.67;;
42066;SDS011;27734;47.028;28.820;2022-09-09T16:07:06;12.40;;;5.80;;
42066;SDS011;27734;47.028;28.820;2022-09-09T16:09:38;14.33;;;5.50;;
42066;SDS011;27734;47.028;28.820;2022-09-09T16:12:11;12.75;;;5.28;;
42066;SDS011;27734;47.028;28.820;2022-09-09T16:14:44;13.10;;;5.60;;
42066;SDS011;27734;47.028;28.820;2022-09-09T16:17:15;15.30;;;5.90;;
42066;SDS011;27734;47.028;28.820;2022-09-09T16:19:50;16.00;;;5.77;;
42066;SDS011;27734;47.028;28.820;2022-09-09T16:22:22;7.57;;;5.00;;
42066;SDS011;27734;47.028;28.820;2022-09-09T16:24:54;11.93;;;5.40;;
42066;SDS011;27734;47.028;28.820;2022-09-09T16:27:28;13.70;;;5.37;;
42066;SDS011;27734;47.028;28.820;2022-09-09T16:29:59;12.17;;;5.57;;
42066;SDS011;27734;47.028;28.820;2022-09-09T16:32:31;14.03;;;5.80;;
42066;SDS011;27734;47.028;28.820;2022-09-09T16:35:04;10.10;;;5.70;;
42066;SDS011;27734;47.028;28.820;2022-09-09T16:37:36;13.55;;;6.17;;
42066;SDS011;27734;47.028;28.820;2022-09-09T16:40:08;14.00;;;6.50;;
42066;SDS011;27734;47.028;28.820;2022-09-09T16:42:39;18.40;;;6.07;;
42066;SDS011;27734;47.028;28.820;2022-09-09T16:45:10;15.07;;;6.20;;
42066;SDS011;27734;47.028;28.820;2022-09-09T16:47:42;12.73;;;6.00;;
42066;SDS011;27734;47.028;28.820;2022-09-09T16:50:13;19.90;;;6.63;;
42066;SDS011;27734;47.028;28.820;2022-09-09T16:52:46;16.30;;;6.97;;